Time;durP1;ratioP1;P1;durP2;ratioP2;P2;SDS_P1;SDS_P2;PMS_P1;PMS_P2;Temp;Humidity;BMP_temperature;BMP_pressure;BME280_temperature;BME280_humidity;BME280_pressure;Samples;Min_cycle;Max_cycle;Signal;HPM_P1;HPM_P2
2021/10/08 00:02:04;;;;;;;2.40;2.20;;;13.30;99.90;;;;;;4903095;29;20142;-80
2021/10/08 00:04:32;;;;;;;3.15;2.95;;;13.30;99.90;;;;;;4918950;29;20059;-84
2021/10/08 00:06:59;;;;;;;2.40;2.20;;;13.30;99.90;;;;;;4919227;29;20123;-82
2021/10/08 00:09:29;;;;;;;2.40;2.20;;;13.30;99.90;;;;;;4918452;29;20046;-81
2021/10/08 00:11:57;;;;;;;3.08;2.88;;;13.40;99.90;;;;;;4919024;29;20164;-83
2021/10/08 00:14:25;;;;;;;3.05;2.85;;;13.30;99.90;;;;;;4935895;29;20048;-83
2021/10/08 00:16:53;;;;;;;2.45;2.25;;;13.40;99.90;;;;;;4935578;29;20050;-85
2021/10/08 00:19:21;;;;;;;2.40;2.20;;;13.30;99.90;;;;;;4902791;29;20593;-83
2021/10/08 00:21:48;;;;;;;2.53;2.33;;;13.30;99.90;;;;;;4903245;29;20080;-83
2021/10/08 00:29:02;;;;;;;2.40;2.20;;;13.30;99.90;;;;;;4935323;29;20034;-82
2021/10/08 00:31:29;;;;;;;2.85;2.65;;;13.40;99.90;;;;;;4935320;29;20498;-83
2021/10/08 00:33:57;;;;;;;2.65;2.45;;;13.40;99.90;;;;;;4908007;29;20055;-80
2021/10/08 00:36:27;;;;;;;2.60;2.40;;;13.30;99.90;;;;;;4899361;29;20395;-81
2021/10/08 00:38:55;;;;;;;;;;;13.40;99.90;;;;;;4899642;29;20091;-85
2021/10/08 00:41:26;;;;;;;2.50;2.30;;;13.40;99.90;;;;;;4899467;29;20391;-83
2021/10/08 00:44:52;;;;;;;2.60;2.40;;;13.40;99.90;;;;;;4899199;29;20063;-84
2021/10/08 00:47:20;;;;;;;2.35;2.15;;;13.40;99.90;;;;;;4899025;29;20060;-86
2021/10/08 00:49:47;;;;;;;4.25;3.85;;;13.30;99.90;;;;;;4899572;29;20055;-86
2021/10/08 00:52:45;;;;;;;2.47;2.28;;;13.30;99.90;;;;;;4900536;29;20096;-84
2021/10/08 00:55:12;;;;;;;2.97;2.78;;;13.20;99.90;;;;;;4916025;29;20096;-85
2021/10/08 00:57:41;;;;;;;2.80;2.55;;;13.20;99.90;;;;;;4916276;29;20048;-85
2021/10/08 01:00:09;;;;;;;2.60;2.40;;;13.30;99.90;;;;;;4883702;29;20040;-85
2021/10/08 01:02:37;;;;;;;2.55;2.30;;;13.20;99.90;;;;;;4883926;29;20135;-85
2021/10/08 01:05:10;;;;;;;3.40;3.20;;;13.20;99.90;;;;;;4915879;29;20075;-86
2021/10/08 01:07:38;;;;;;;2.45;2.25;;;13.20;99.90;;;;;;4899872;29;20151;-86
2021/10/08 01:10:11;;;;;;;2.35;2.15;;;13.20;99.90;;;;;;4899118;29;20044;-86
2021/10/08 01:12:39;;;;;;;2.30;2.10;;;13.20;99.90;;;;;;4915952;29;20093;-86
2021/10/08 01:15:08;;;;;;;2.42;2.22;;;13.20;99.90;;;;;;4915517;29;20040;-86
2021/10/08 01:17:36;;;;;;;2.33;2.13;;;13.20;99.90;;;;;;4916186;29;20404;-85
2021/10/08 01:20:05;;;;;;;2.90;2.60;;;13.20;99.90;;;;;;4898926;29;20083;-85
2021/10/08 01:22:33;;;;;;;2.40;2.20;;;13.20;99.90;;;;;;4899131;29;20052;-83
2021/10/08 01:25:00;;;;;;;2.30;2.10;;;13.20;99.90;;;;;;4915704;29;20044;-82
2021/10/08 01:27:28;;;;;;;2.40;2.20;;;13.20;99.90;;;;;;4914933;29;20052;-85
2021/10/08 01:29:58;;;;;;;2.47;2.28;;;13.20;99.90;;;;;;4915568;29;20047;-85
2021/10/08 01:32:28;;;;;;;2.75;2.38;;;13.20;99.90;;;;;;4899032;29;20444;-85
2021/10/08 01:34:56;;;;;;;3.03;2.83;;;13.20;99.90;;;;;;4901845;29;20451;-86
2021/10/08 01:37:23;;;;;;;3.75;2.50;;;13.10;99.90;;;;;;4921688;29;20043;-82
2021/10/08 01:39:50;;;;;;;2.30;2.10;;;13.10;99.90;;;;;;4921574;29;20143;-83
2021/10/08 01:42:18;;;;;;;2.50;2.30;;;13.10;99.90;;;;;;4921143;29;20053;-83
2021/10/08 01:44:46;;;;;;;2.40;2.20;;;13.10;99.90;;;;;;4905528;29;20083;-86
2021/10/08 01:47:13;;;;;;;2.50;2.30;;;13.10;99.90;;;;;;4938550;29;20048;-85
2021/10/08 01:49:43;;;;;;;3.03;2.83;;;13.10;99.90;;;;;;4938451;29;20044;-86
2021/10/08 01:52:10;;;;;;;2.50;2.30;;;13.20;99.90;;;;;;4905293;29;20312;-83
2021/10/08 01:54:37;;;;;;;2.50;2.30;;;13.20;99.90;;;;;;4921088;29;20043;-83
2021/10/08 01:57:05;;;;;;;2.72;2.53;;;13.10;99.90;;;;;;4921414;29;20055;-84
2021/10/08 01:59:41;;;;;;;2.28;2.13;;;13.10;99.90;;;;;;4937928;29;20220;-84
2021/10/08 02:02:08;;;;;;;2.42;2.22;;;13.10;99.90;;;;;;4937561;29;20079;-81
2021/10/08 02:08:49;;;;;;;2.60;2.40;;;13.10;99.90;;;;;;4937455;29;20034;-84
2021/10/08 02:11:16;;;;;;;3.10;2.60;;;13.10;99.90;;;;;;4904956;29;20443;-82
2021/10/08 02:13:44;;;;;;;2.78;2.58;;;13.10;99.90;;;;;;4904683;29;20090;-85
2021/10/08 02:16:12;;;;;;;2.40;2.20;;;13.10;99.90;;;;;;4920538;29;20514;-83
2021/10/08 02:18:39;;;;;;;3.00;2.78;;;13.10;99.90;;;;;;4937897;29;20126;-85
2021/10/08 02:21:06;;;;;;;2.58;2.38;;;13.00;99.90;;;;;;4937710;29;20040;-83
2021/10/08 02:23:34;;;;;;;4.18;2.78;;;12.90;99.90;;;;;;4904853;29;20427;-85
2021/10/08 02:26:01;;;;;;;2.47;2.28;;;12.80;99.90;;;;;;4920911;29;20508;-84
2021/10/08 02:28:29;;;;;;;2.50;2.30;;;12.70;99.90;;;;;;4904512;29;20494;-85
2021/10/08 02:30:56;;;;;;;3.28;2.97;;;12.80;99.90;;;;;;4904887;29;20062;-82
2021/10/08 02:33:24;;;;;;;2.55;2.35;;;12.80;99.90;;;;;;4934896;29;20047;-81
2021/10/08 02:35:51;;;;;;;2.40;2.20;;;12.80;99.90;;;;;;4918375;29;20128;-82
2021/10/08 02:38:19;;;;;;;2.97;2.78;;;12.90;99.90;;;;;;4885864;29;20048;-83
2021/10/08 02:40:47;;;;;;;2.65;2.45;;;12.90;99.90;;;;;;4918227;29;20078;-82
2021/10/08 02:43:14;;;;;;;2.53;2.33;;;12.90;99.90;;;;;;4901661;29;20423;-82
2021/10/08 02:45:42;;;;;;;2.90;2.70;;;12.90;99.90;;;;;;4917252;29;20534;-86
2021/10/08 03:04:42;;;;;;;3.90;3.58;;;12.80;99.90;;;;;;4917958;29;20059;-85
2021/10/08 03:07:10;;;;;;;2.55;2.35;;;12.80;99.90;;;;;;4900925;29;20100;-85
2021/10/08 03:09:46;;;;;;;2.65;2.45;;;12.90;99.90;;;;;;4885021;29;20198;-84
2021/10/08 03:12:14;;;;;;;2.40;2.20;;;12.90;99.90;;;;;;4901019;29;20072;-85
2021/10/08 03:14:41;;;;;;;2.45;2.25;;;12.80;99.90;;;;;;4900457;29;20052;-84
2021/10/08 03:17:08;;;;;;;3.20;3.00;;;12.80;99.90;;;;;;4901218;29;20048;-84
2021/10/08 03:19:36;;;;;;;2.40;2.20;;;12.80;99.90;;;;;;4901177;29;20054;-84
2021/10/08 03:22:03;;;;;;;2.75;2.55;;;12.80;99.90;;;;;;4917276;29;20213;-84
2021/10/08 03:24:31;;;;;;;2.67;2.47;;;12.80;99.90;;;;;;4900210;29;20041;-83
2021/10/08 03:26:59;;;;;;;2.78;2.58;;;12.80;99.90;;;;;;4900769;29;20052;-87
2021/10/08 03:29:27;;;;;;;2.53;2.33;;;12.80;99.90;;;;;;4900049;29;20048;-84
2021/10/08 03:31:54;;;;;;;3.47;3.17;;;12.80;99.90;;;;;;4900711;29;20050;-85
2021/10/08 03:34:22;;;;;;;2.50;2.30;;;12.90;99.90;;;;;;4908744;29;20047;-85
2021/10/08 03:37:12;;;;;;;2.40;2.20;;;12.80;99.90;;;;;;4919213;29;20139;-84
2021/10/08 03:39:43;;;;;;;2.45;2.25;;;12.80;99.90;;;;;;4919485;29;20039;-85
2021/10/08 03:42:16;;;;;;;2.53;2.33;;;12.80;99.90;;;;;;4903749;29;20058;-84
2021/10/08 03:44:52;;;;;;;2.55;2.35;;;12.90;99.90;;;;;;4918751;29;20039;-83
2021/10/08 03:47:26;;;;;;;2.50;2.30;;;12.90;99.90;;;;;;4935762;29;20056;-81
2021/10/08 03:49:53;;;;;;;2.40;2.20;;;13.00;99.90;;;;;;4919495;29;20122;-83
2021/10/08 03:52:28;;;;;;;2.40;2.20;;;13.00;99.90;;;;;;4935792;29;20082;-83
2021/10/08 03:54:55;;;;;;;2.15;2.03;;;13.10;99.90;;;;;;4919106;29;20124;-85
2021/10/08 03:57:22;;;;;;;2.65;2.45;;;13.10;99.90;;;;;;4902679;29;20055;-83
2021/10/08 03:59:53;;;;;;;3.03;2.83;;;13.10;99.90;;;;;;4919244;29;20035;-83
2021/10/08 04:02:20;;;;;;;2.97;2.78;;;13.10;99.90;;;;;;4919061;29;20078;-83
2021/10/08 04:04:50;;;;;;;2.78;2.55;;;13.10;99.90;;;;;;4918544;29;20062;-84
2021/10/08 04:07:17;;;;;;;2.70;2.50;;;13.10;99.90;;;;;;4918749;29;20035;-85
2021/10/08 04:09:45;;;;;;;2.78;2.58;;;13.10;99.90;;;;;;4918897;29;20047;-84
2021/10/08 04:12:12;;;;;;;2.40;2.20;;;13.20;99.90;;;;;;4918247;29;20058;-79
2021/10/08 04:14:40;;;;;;;2.50;2.30;;;13.20;99.90;;;;;;4918588;29;20433;-83
2021/10/08 04:17:07;;;;;;;2.90;2.70;;;13.20;99.90;;;;;;4935828;29;20047;-83
2021/10/08 04:19:34;;;;;;;2.50;2.30;;;13.10;99.90;;;;;;4902447;29;20050;-83
2021/10/08 04:22:02;;;;;;;2.38;2.17;;;13.10;99.90;;;;;;4918527;29;20075;-83
2021/10/08 04:24:29;;;;;;;3.05;2.85;;;13.20;99.90;;;;;;4935139;29;20044;-83
2021/10/08 04:26:56;;;;;;;2.00;1.90;;;13.10;99.90;;;;;;4918646;29;20490;-85
2021/10/08 04:29:24;;;;;;;2.88;2.67;;;13.10;99.90;;;;;;4917840;29;20040;-83
2021/10/08 04:31:51;;;;;;;2.40;2.20;;;13.00;99.90;;;;;;4918444;29;20380;-84
2021/10/08 04:34:18;;;;;;;2.42;2.22;;;13.00;99.90;;;;;;4935304;29;20067;-83
2021/10/08 04:36:45;;;;;;;2.40;2.20;;;13.00;99.90;;;;;;4918324;29;20501;-81
2021/10/08 04:39:13;;;;;;;2.42;2.22;;;13.00;99.90;;;;;;4902241;29;20473;-83
2021/10/08 04:41:40;;;;;;;2.95;2.75;;;13.00;99.90;;;;;;4902755;29;20394;-83
2021/10/08 04:44:08;;;;;;;2.72;2.53;;;13.00;99.90;;;;;;4902049;29;20044;-83
2021/10/08 04:46:35;;;;;;;3.42;3.13;;;13.00;99.90;;;;;;4902196;29;20135;-82
2021/10/08 04:49:02;;;;;;;2.80;2.60;;;12.90;99.90;;;;;;4935061;29;20035;-85
2021/10/08 04:51:33;;;;;;;2.90;2.65;;;12.90;99.90;;;;;;4934806;29;20043;-84
2021/10/08 04:54:01;;;;;;;2.40;2.20;;;12.90;99.90;;;;;;4934809;29;20406;-83
2021/10/08 04:56:32;;;;;;;2.40;2.20;;;12.90;99.90;;;;;;4935074;29;20150;-85
2021/10/08 04:59:00;;;;;;;3.38;3.10;;;12.90;99.90;;;;;;4902000;29;20070;-86
2021/10/08 05:01:28;;;;;;;3.05;2.85;;;12.90;99.90;;;;;;4917829;29;20418;-85
2021/10/08 05:03:56;;;;;;;2.33;2.13;;;12.90;99.90;;;;;;4917965;29;20050;-83
2021/10/08 05:06:23;;;;;;;2.50;2.30;;;12.90;99.90;;;;;;4935179;29;20114;-86
2021/10/08 05:08:51;;;;;;;2.65;2.45;;;12.80;99.90;;;;;;4935357;29;20102;-86
2021/10/08 05:11:18;;;;;;;3.35;2.67;;;12.80;99.90;;;;;;4938059;29;20036;-84
2021/10/08 05:13:45;;;;;;;4.60;3.90;;;12.90;99.90;;;;;;4936496;29;20055;-86
2021/10/08 05:16:13;;;;;;;2.70;2.50;;;13.20;99.90;;;;;;4921331;29;20070;-87
2021/10/08 05:18:40;;;;;;;6.38;3.33;;;13.20;99.90;;;;;;4922130;29;20062;-86
2021/10/08 05:21:08;;;;;;;3.17;2.95;;;13.10;99.90;;;;;;4920669;29;20046;-85
2021/10/08 05:23:35;;;;;;;3.70;3.40;;;13.20;99.90;;;;;;4920389;29;20063;-84
2021/10/08 05:26:03;;;;;;;3.17;2.88;;;13.20;99.90;;;;;;4906113;29;20036;-85
2021/10/08 05:28:30;;;;;;;2.50;2.30;;;13.10;99.90;;;;;;4901271;29;20142;-84
2021/10/08 05:30:58;;;;;;;2.50;2.30;;;13.10;99.90;;;;;;4901483;29;20058;-85
2021/10/08 05:33:26;;;;;;;5.35;4.93;;;13.00;99.90;;;;;;4902052;29;20423;-84
2021/10/08 05:35:58;;;;;;;2.50;2.30;;;12.90;99.90;;;;;;4899309;29;20470;-83
2021/10/08 05:38:25;;;;;;;3.15;2.95;;;12.80;99.90;;;;;;4914508;29;20045;-82
2021/10/08 05:40:54;;;;;;;3.55;3.05;;;12.80;99.90;;;;;;4899348;29;20036;-86
2021/10/08 05:43:25;;;;;;;5.43;3.70;;;12.80;99.90;;;;;;4914560;29;20070;-87
2021/10/08 05:45:56;;;;;;;4.22;3.88;;;12.80;99.90;;;;;;4884750;29;20045;-87
2021/10/08 05:48:28;;;;;;;2.40;2.20;;;12.70;99.90;;;;;;4884255;29;20053;-86
2021/10/08 05:50:55;;;;;;;2.70;2.50;;;12.80;99.90;;;;;;4900259;29;20052;-83
2021/10/08 05:53:23;;;;;;;2.75;2.55;;;12.80;99.90;;;;;;4881835;29;20097;-80
2021/10/08 05:55:50;;;;;;;3.13;2.92;;;12.70;99.90;;;;;;4906636;29;20060;-83
2021/10/08 05:58:18;;;;;;;2.60;2.40;;;12.70;99.90;;;;;;4900737;29;20043;-83
2021/10/08 06:01:10;;;;;;;4.15;3.85;;;12.80;99.90;;;;;;4883479;29;20060;-86
2021/10/08 06:03:46;;;;;;;3.95;3.65;;;13.00;99.90;;;;;;4885257;29;20395;-81
2021/10/08 06:06:14;;;;;;;3.35;2.47;;;13.00;99.90;;;;;;4917889;29;20048;-81
2021/10/08 06:08:41;;;;;;;5.15;4.75;;;12.80;99.90;;;;;;4918058;29;20040;-82
2021/10/08 06:11:09;;;;;;;8.13;5.07;;;13.10;99.90;;;;;;4843962;29;20538;-81
2021/10/08 06:13:42;;;;;;;3.50;3.20;;;13.20;99.90;;;;;;4882702;29;20052;-84
2021/10/08 06:16:10;;;;;;;4.00;3.70;;;13.10;99.90;;;;;;4882637;29;20457;-84
2021/10/08 06:19:02;;;;;;;2.50;2.30;;;13.20;99.90;;;;;;4903593;23;20391;-83
2021/10/08 06:21:30;;;;;;;2.50;2.30;;;13.20;99.90;;;;;;4902589;29;20047;-82
2021/10/08 06:36:29;;;;;;;2.92;2.72;;;12.70;99.90;;;;;;4924819;29;20131;-82
2021/10/08 06:38:57;;;;;;;2.50;2.30;;;12.80;99.90;;;;;;4935486;29;20070;-82
2021/10/08 06:41:56;;;;;;;2.60;2.40;;;12.80;99.90;;;;;;4918477;29;20042;-80
2021/10/08 06:44:24;;;;;;;3.90;3.60;;;12.70;99.90;;;;;;4935546;29;20050;-81
2021/10/08 06:46:51;;;;;;;2.50;2.30;;;12.70;99.90;;;;;;4918959;29;20130;-81
2021/10/08 06:49:18;;;;;;;5.00;2.78;;;12.80;99.90;;;;;;4935931;29;20118;-80
2021/10/08 06:51:46;;;;;;;3.35;2.97;;;12.90;99.90;;;;;;4935139;29;20500;-80
2021/10/08 06:54:16;;;;;;;2.47;2.28;;;13.00;99.90;;;;;;4918616;29;20439;-79
2021/10/08 06:56:43;;;;;;;6.07;3.97;;;13.10;99.90;;;;;;4918390;29;20040;-79
2021/10/08 06:59:10;;;;;;;2.70;2.50;;;13.20;99.90;;;;;;4934388;29;20105;-80
2021/10/08 07:01:38;;;;;;;3.08;2.78;;;13.20;99.90;;;;;;4934727;29;20444;-81
2021/10/08 07:04:05;;;;;;;2.50;2.30;;;13.20;99.90;;;;;;4917165;29;20123;-82
2021/10/08 07:06:32;;;;;;;2.60;2.40;;;13.20;99.90;;;;;;4917558;29;20079;-82
2021/10/08 07:09:00;;;;;;;3.08;2.88;;;13.10;99.90;;;;;;4918065;29;20051;-81
2021/10/08 07:11:27;;;;;;;2.50;2.30;;;13.20;99.90;;;;;;4914095;29;20054;-82
2021/10/08 07:13:55;;;;;;;2.60;2.40;;;13.20;99.90;;;;;;4883782;29;20044;-81
2021/10/08 07:16:24;;;;;;;2.20;2.10;;;13.00;99.90;;;;;;4899714;29;20564;-83
2021/10/08 07:18:56;;;;;;;3.13;2.83;;;13.00;99.90;;;;;;4896209;29;20113;-83
2021/10/08 07:21:24;;;;;;;2.50;2.30;;;13.00;99.90;;;;;;4897142;29;20168;-82
2021/10/08 07:23:52;;;;;;;2.33;2.13;;;12.90;99.90;;;;;;4880610;29;20052;-84
2021/10/08 07:26:22;;;;;;;2.75;2.55;;;12.90;99.90;;;;;;4897218;29;20048;-83
2021/10/08 07:28:50;;;;;;;2.58;2.38;;;13.00;99.90;;;;;;4897597;29;20068;-83
2021/10/08 07:31:26;;;;;;;2.70;2.50;;;12.90;99.90;;;;;;4881617;29;20049;-83
2021/10/08 07:33:54;;;;;;;2.58;2.38;;;12.80;99.90;;;;;;4888726;29;20412;-82
2021/10/08 07:36:21;;;;;;;2.60;2.40;;;13.00;99.90;;;;;;4897835;29;20053;-79
2021/10/08 07:38:55;;;;;;;2.50;2.30;;;13.30;99.90;;;;;;4870481;29;20052;-83
2021/10/08 07:41:45;;;;;;;2.60;2.40;;;13.40;99.90;;;;;;4865360;29;20040;-85
2021/10/08 07:44:17;;;;;;;2.85;2.65;;;13.60;99.90;;;;;;4898937;29;20115;-83
2021/10/08 07:46:44;;;;;;;2.40;2.20;;;13.60;99.90;;;;;;4916012;29;20044;-84
2021/10/08 07:49:14;;;;;;;2.40;2.20;;;13.50;99.90;;;;;;4915622;29;20082;-87
2021/10/08 07:51:41;;;;;;;2.40;2.20;;;13.50;99.90;;;;;;4898969;29;20131;-86
2021/10/08 07:54:09;;;;;;;2.30;2.10;;;13.50;99.90;;;;;;4899480;29;20455;-82
2021/10/08 07:56:36;;;;;;;3.70;3.35;;;13.50;99.90;;;;;;4914288;29;20040;-85
2021/10/08 07:59:05;;;;;;;2.92;2.72;;;13.30;99.90;;;;;;4914208;29;20088;-83
2021/10/08 08:01:33;;;;;;;2.40;2.20;;;13.30;99.90;;;;;;4916770;29;20074;-85
2021/10/08 08:04:00;;;;;;;2.50;2.30;;;13.30;99.90;;;;;;4884260;29;20111;-86
2021/10/08 08:06:28;;;;;;;2.35;2.15;;;13.30;99.90;;;;;;4916196;29;20044;-86
2021/10/08 08:08:59;;;;;;;3.30;2.55;;;13.30;99.90;;;;;;4899414;29;20052;-85
2021/10/08 08:11:26;;;;;;;3.17;2.97;;;13.30;99.90;;;;;;4898817;29;20047;-83
2021/10/08 08:13:54;;;;;;;2.35;2.15;;;13.30;99.90;;;;;;4899143;29;20516;-84
2021/10/08 08:16:21;;;;;;;2.10;2.00;;;13.30;99.90;;;;;;4915504;29;20088;-86
2021/10/08 08:18:52;;;;;;;2.42;2.22;;;13.30;99.90;;;;;;4915083;29;20056;-87
2021/10/08 08:21:24;;;;;;;2.40;2.20;;;13.30;99.90;;;;;;4915435;29;20051;-86
2021/10/08 08:23:51;;;;;;;2.40;2.20;;;13.30;99.90;;;;;;4898744;29;20581;-86
2021/10/08 08:26:18;;;;;;;2.20;2.10;;;13.40;99.90;;;;;;4915490;29;20496;-84
2021/10/08 08:28:46;;;;;;;3.38;3.08;;;13.40;99.90;;;;;;4915342;29;20047;-85
2021/10/08 08:31:15;;;;;;;2.35;2.15;;;13.30;99.90;;;;;;4898812;29;20056;-88
2021/10/08 08:33:42;;;;;;;2.20;2.10;;;13.40;99.90;;;;;;4902912;29;20415;-87
2021/10/08 08:36:10;;;;;;;2.30;2.10;;;13.30;99.90;;;;;;4917346;29;20050;-83
2021/10/08 08:38:37;;;;;;;2.20;2.08;;;13.40;99.90;;;;;;4901246;29;20075;-86
2021/10/08 08:41:04;;;;;;;2.22;2.05;;;13.50;99.90;;;;;;4916834;29;20425;-87
2021/10/08 08:43:52;;;;;;;2.05;1.95;;;13.70;99.90;;;;;;4920351;29;20609;-84
2021/10/08 08:46:20;;;;;;;2.10;2.00;;;13.70;99.90;;;;;;4903201;29;20455;-85
2021/10/08 08:48:48;;;;;;;2.30;2.10;;;13.80;99.90;;;;;;4918521;29;20040;-88
2021/10/08 08:51:16;;;;;;;5.68;4.55;;;13.90;99.90;;;;;;4902941;29;20062;-87
2021/10/08 08:53:44;;;;;;;2.65;2.42;;;13.80;99.90;;;;;;4917858;29;20047;-88
2021/10/08 08:56:11;;;;;;;2.10;2.00;;;13.80;99.90;;;;;;4917667;29;20058;-85
2021/10/08 08:58:39;;;;;;;2.10;2.00;;;13.90;99.90;;;;;;4934826;29;20075;-84
2021/10/08 09:01:06;;;;;;;2.40;2.20;;;13.80;99.90;;;;;;4918203;29;20126;-87
2021/10/08 09:03:34;;;;;;;2.67;2.47;;;13.70;99.90;;;;;;4902140;29;20063;-86
2021/10/08 09:06:01;;;;;;;2.00;1.90;;;13.80;99.90;;;;;;4918208;29;20040;-86
2021/10/08 09:08:34;;;;;;;4.50;2.83;;;13.70;99.90;;;;;;4917695;29;20143;-84
2021/10/08 09:11:06;;;;;;;2.15;2.00;;;13.70;99.90;;;;;;4935309;29;20439;-91
2021/10/08 09:13:33;;;;;;;3.30;3.08;;;13.70;99.90;;;;;;4903066;29;20058;-88
2021/10/08 09:16:03;;;;;;;2.47;2.28;;;13.70;99.90;;;;;;4918709;29;20043;-86
2021/10/08 09:18:33;;;;;;;2.28;2.10;;;13.60;99.90;;;;;;4902454;29;20455;-84
2021/10/08 09:21:16;;;;;;;2.15;2.05;;;13.50;99.90;;;;;;4903121;29;20523;-90
2021/10/08 09:23:48;;;;;;;2.30;2.10;;;13.50;99.90;;;;;;4918581;29;20579;-87
2021/10/08 09:26:27;;;;;;;2.28;2.15;;;13.60;99.90;;;;;;4902183;29;20044;-88
2021/10/08 09:29:06;;;;;;;2.10;2.00;;;13.50;99.90;;;;;;4915991;29;20134;-87
2021/10/08 09:32:11;;;;;;;2.38;2.20;;;13.60;99.90;;;;;;4896718;29;20115;-84
2021/10/08 09:35:07;;;;;;;2.60;2.40;;;13.50;99.90;;;;;;4871232;29;20049;-90
2021/10/08 09:37:35;;;;;;;3.78;3.45;;;13.50;99.90;;;;;;4903019;29;20725;-88
2021/10/08 09:40:05;;;;;;;2.30;2.10;;;13.60;99.90;;;;;;4935431;29;20040;-88
2021/10/08 09:42:34;;;;;;;2.33;2.13;;;13.60;99.90;;;;;;4935062;29;20074;-91
2021/10/08 09:45:04;;;;;;;2.10;2.00;;;13.50;99.90;;;;;;4903312;29;20415;-89
2021/10/08 09:47:32;;;;;;;2.30;2.10;;;13.50;99.90;;;;;;4919111;29;20083;-85
2021/10/08 09:50:12;;;;;;;3.65;3.35;;;13.40;99.90;;;;;;4937105;29;20044;-89
2021/10/08 09:52:39;;;;;;;2.50;2.30;;;13.40;99.90;;;;;;4918580;29;20040;-85
2021/10/08 09:55:12;;;;;;;2.30;2.10;;;13.40;99.90;;;;;;4936523;29;20048;-90
2021/10/08 09:57:48;;;;;;;2.30;2.10;;;13.50;99.90;;;;;;4922564;29;20490;-83
2021/10/08 10:00:38;;;;;;;2.30;2.10;;;13.50;99.90;;;;;;4922418;29;20127;-87
2021/10/08 10:03:08;;;;;;;3.47;3.22;;;13.50;99.90;;;;;;4906316;29;20059;-87
2021/10/08 10:05:36;;;;;;;3.53;3.28;;;13.60;99.90;;;;;;4922559;29;20054;-84
2021/10/08 10:08:04;;;;;;;2.00;1.90;;;13.60;99.90;;;;;;4905455;29;20048;-88
2021/10/08 10:10:34;;;;;;;2.90;2.70;;;13.70;99.90;;;;;;4921328;29;20040;-88
2021/10/08 10:13:06;;;;;;;2.30;2.10;;;13.70;99.90;;;;;;4906337;29;20063;-83
2021/10/08 10:15:42;;;;;;;19.80;3.28;;;13.60;99.90;;;;;;4921439;29;20047;-87
2021/10/08 10:18:11;;;;;;;2.00;1.90;;;13.50;99.90;;;;;;4920497;29;20138;-84
2021/10/08 10:20:44;;;;;;;2.10;2.00;;;13.50;99.90;;;;;;4937466;29;20476;-84
2021/10/08 10:23:15;;;;;;;2.10;2.00;;;13.50;99.90;;;;;;4919990;29;20701;-82
2021/10/08 10:25:44;;;;;;;3.15;2.85;;;13.40;99.90;;;;;;4920824;29;20039;-85
2021/10/08 10:28:11;;;;;;;2.42;2.22;;;13.40;99.90;;;;;;4905326;29;20067;-88
2021/10/08 10:30:46;;;;;;;2.58;2.38;;;13.40;99.90;;;;;;4913373;29;20039;-90
2021/10/08 10:33:13;;;;;;;2.10;2.00;;;13.40;99.90;;;;;;4918685;29;20485;-85
2021/10/08 10:35:44;;;;;;;2.30;2.10;;;13.50;99.90;;;;;;4918312;29;20052;-87
2021/10/08 10:38:36;;;;;;;2.30;2.10;;;13.50;99.90;;;;;;4901071;29;20062;-84
2021/10/08 10:41:09;;;;;;;2.85;2.65;;;13.50;99.90;;;;;;4885399;29;20066;-85
2021/10/08 10:43:46;;;;;;;2.67;2.47;;;13.50;99.90;;;;;;4917756;29;20415;-89
2021/10/08 10:52:01;;;;;;;2.10;2.00;;;13.60;99.90;;;;;;4900905;29;20090;-85
2021/10/08 10:54:52;;;;;;;1.90;1.80;;;13.70;99.90;;;;;;4917219;29;20048;-85
2021/10/08 10:57:23;;;;;;;2.20;2.10;;;13.60;99.90;;;;;;4892675;29;20044;-83
2021/10/08 10:59:50;;;;;;;2.00;1.90;;;13.70;99.90;;;;;;4887129;29;20044;-90
2021/10/08 11:02:33;;;;;;;2.30;2.13;;;14.00;99.90;;;;;;4889782;29;20500;-86
2021/10/08 11:05:20;;;;;;;2.83;2.63;;;14.40;99.90;;;;;;4895154;29;20445;-94
2021/10/08 11:08:12;;;;;;;2.63;2.45;;;14.30;99.90;;;;;;4905035;29;20456;-95
2021/10/08 11:13:40;;;;;;;2.00;1.90;;;14.40;99.90;;;;;;4925905;29;20076;-90
2021/10/08 11:16:14;;;;;;;2.15;2.05;;;14.40;99.90;;;;;;4907533;29;20036;-92
2021/10/08 11:18:50;;;;;;;2.20;2.08;;;14.40;99.90;;;;;;4905106;29;20062;-92
2021/10/08 11:21:27;;;;;;;3.55;3.22;;;14.50;99.90;;;;;;4920832;29;20040;-89
2021/10/08 11:24:01;;;;;;;5.65;2.70;;;14.50;99.90;;;;;;4914642;29;20048;-87
2021/10/08 11:26:28;;;;;;;2.10;2.00;;;14.50;99.90;;;;;;4893375;29;20040;-94
2021/10/08 11:28:57;;;;;;;2.20;2.05;;;14.40;99.90;;;;;;4909695;29;20115;-91
2021/10/08 11:31:27;;;;;;;1.80;1.70;;;14.60;99.90;;;;;;4888995;29;20036;-85
2021/10/08 11:33:54;;;;;;;5.30;2.47;;;14.60;99.90;;;;;;4905284;29;20051;-92
2021/10/08 11:36:29;;;;;;;2.00;1.90;;;14.50;99.90;;;;;;4922475;29;20044;-92
2021/10/08 11:39:17;;;;;;;2.00;1.90;;;14.40;99.90;;;;;;4915330;29;20068;-92
2021/10/08 11:42:14;;;;;;;1.90;1.80;;;14.50;99.90;;;;;;4898032;29;20457;-89
2021/10/08 11:44:59;;;;;;;1.90;1.80;;;14.50;99.90;;;;;;4898571;29;20056;-85
2021/10/08 11:47:47;;;;;;;3.28;3.08;;;14.30;99.90;;;;;;4882231;29;20122;-89
2021/10/08 11:53:00;;;;;;;2.00;1.90;;;14.30;99.90;;;;;;4898255;29;20051;-87
2021/10/08 11:55:32;;;;;;;2.00;1.90;;;14.40;99.90;;;;;;4897043;29;20044;-88
2021/10/08 11:58:04;;;;;;;2.00;1.90;;;14.30;99.90;;;;;;4881564;29;20076;-85
2021/10/08 12:00:47;;;;;;;1.90;1.80;;;14.40;99.90;;;;;;4898742;29;20120;-87
2021/10/08 12:03:21;;;;;;;2.00;1.90;;;14.40;99.90;;;;;;4882397;29;20581;-87
2021/10/08 12:05:51;;;;;;;1.92;1.83;;;14.40;99.90;;;;;;4867945;29;20071;-88
2021/10/08 12:08:22;;;;;;;1.90;1.80;;;14.40;99.90;;;;;;4888376;29;20461;-84
2021/10/08 12:11:10;;;;;;;1.90;1.80;;;14.40;99.90;;;;;;4866292;29;20067;-86
2021/10/08 12:13:57;;;;;;;2.08;1.98;;;14.50;99.90;;;;;;4881317;29;20051;-91
2021/10/08 12:16:45;;;;;;;1.95;1.85;;;14.50;99.90;;;;;;4881642;29;20037;-87
2021/10/08 12:19:14;;;;;;;2.05;1.95;;;14.40;99.90;;;;;;4880969;29;20139;-86
2021/10/08 12:21:43;;;;;;;2.00;1.90;;;14.40;99.90;;;;;;4880165;29;20051;-87
2021/10/08 12:24:15;;;;;;;2.05;1.95;;;14.60;99.90;;;;;;4881000;29;20156;-87
2021/10/08 12:26:51;;;;;;;1.90;1.80;;;14.60;99.90;;;;;;4880996;29;20062;-89
2021/10/08 12:29:18;;;;;;;2.03;1.92;;;14.50;99.90;;;;;;4880969;29;20072;-85
2021/10/08 12:31:57;;;;;;;2.17;2.08;;;14.50;99.90;;;;;;4898286;29;20055;-88
2021/10/08 12:34:35;;;;;;;1.90;1.80;;;14.60;99.90;;;;;;4866110;29;20450;-88
2021/10/08 12:37:06;;;;;;;2.28;2.08;;;14.60;99.90;;;;;;4865854;29;20159;-84
2021/10/08 12:40:08;;;;;;;2.00;1.90;;;14.70;99.90;;;;;;4880199;29;20135;-84
2021/10/08 12:42:43;;;;;;;1.90;1.80;;;14.90;99.90;;;;;;4897607;29;20068;-86
2021/10/08 12:45:41;;;;;;;3.65;3.20;;;14.90;99.90;;;;;;4881713;29;20471;-86
2021/10/08 12:48:15;;;;;;;2.00;1.90;;;14.80;99.90;;;;;;4881563;29;20044;-87
2021/10/08 12:50:43;;;;;;;2.80;2.60;;;14.80;99.90;;;;;;4866105;29;20112;-86
2021/10/08 12:53:19;;;;;;;1.90;1.80;;;14.60;99.90;;;;;;4897891;29;20044;-88
2021/10/08 12:55:48;;;;;;;1.92;1.83;;;14.50;99.90;;;;;;4865984;29;20112;-84
2021/10/08 12:58:24;;;;;;;1.90;1.80;;;14.50;99.90;;;;;;4865457;29;20053;-88
2021/10/08 13:01:16;;;;;;;1.90;1.80;;;14.30;99.90;;;;;;4881746;29;20044;-85
2021/10/08 13:03:44;;;;;;;2.20;2.05;;;14.30;99.90;;;;;;4897103;29;20167;-85
2021/10/08 13:06:18;;;;;;;2.10;2.00;;;14.20;99.90;;;;;;4897210;29;20068;-86
2021/10/08 13:09:09;;;;;;;2.00;1.90;;;14.20;99.90;;;;;;4865032;29;20061;-87
2021/10/08 13:11:39;;;;;;;2.15;2.05;;;14.20;99.90;;;;;;4880465;29;20079;-86
2021/10/08 13:14:25;;;;;;;2.25;2.08;;;14.10;99.90;;;;;;4880304;29;20056;-83
2021/10/08 13:16:53;;;;;;;2.00;1.90;;;14.10;99.90;;;;;;4879777;29;20044;-84
2021/10/08 13:19:31;;;;;;;2.20;2.05;;;14.00;99.90;;;;;;4881021;29;20057;-84
2021/10/08 13:22:00;;;;;;;2.38;2.22;;;14.00;99.90;;;;;;4864462;29;20064;-82
2021/10/08 13:24:28;;;;;;;2.00;1.90;;;13.90;99.90;;;;;;4864540;29;20235;-85
2021/10/08 13:26:58;;;;;;;2.42;2.22;;;13.90;99.90;;;;;;4864906;29;20079;-87
2021/10/08 13:29:27;;;;;;;2.10;2.00;;;13.90;99.90;;;;;;4865001;29;20041;-86
2021/10/08 13:31:57;;;;;;;2.10;2.00;;;13.90;99.90;;;;;;4868359;29;20143;-84
2021/10/08 13:34:26;;;;;;;2.08;1.98;;;13.90;99.90;;;;;;4906888;29;20519;-85
2021/10/08 13:37:11;;;;;;;2.10;2.00;;;13.90;99.90;;;;;;4907239;29;20055;-86
2021/10/08 13:39:38;;;;;;;2.30;2.10;;;13.80;99.90;;;;;;4904665;29;20116;-85
2021/10/08 13:42:06;;;;;;;2.03;1.92;;;13.70;99.90;;;;;;4904701;29;20058;-87
2021/10/08 13:44:36;;;;;;;2.78;2.58;;;13.70;99.90;;;;;;4937265;29;20395;-87
2021/10/08 13:47:04;;;;;;;2.30;2.10;;;13.80;99.90;;;;;;4905478;29;20393;-83
2021/10/08 13:49:32;;;;;;;2.72;2.53;;;13.70;99.90;;;;;;4920487;29;20075;-84
2021/10/08 13:52:03;;;;;;;2.42;2.22;;;13.70;99.90;;;;;;4920550;29;20564;-84
2021/10/08 13:54:31;;;;;;;2.00;1.90;;;13.70;99.90;;;;;;4904947;29;20047;-83
2021/10/08 13:56:58;;;;;;;2.10;2.00;;;13.60;99.90;;;;;;4904996;29;20047;-84
2021/10/08 13:59:26;;;;;;;2.30;2.10;;;13.60;99.90;;;;;;4938231;29;20419;-82